Time;durP1;ratioP1;P1;durP2;ratioP2;P2;SDS_P1;SDS_P2;PMS_P1;PMS_P2;Temp;Humidity;BMP_temperature;BMP_pressure;BME280_temperature;BME280_humidity;BME280_pressure;Samples;Min_cycle;Max_cycle;Signal;HPM_P1;HPM_P2
2023/07/26 00:00:04;;;;;;;0.00;0.00;;;;;;;;;;5071771;28;20040;-81
2023/07/26 00:02:30;;;;;;;0.00;0.00;;;;;;;;;;5055567;28;20040;-81
2023/07/26 00:04:56;;;;;;;0.00;0.00;;;;;;;;;;5071946;28;20499;-81
2023/07/26 00:07:22;;;;;;;0.00;0.00;;;;;;;;;;5072241;28;20076;-81
2023/07/26 00:09:48;;;;;;;0.00;0.00;;;;;;;;;;5072873;28;20389;-80
2023/07/26 00:12:14;;;;;;;0.00;0.00;;;;;;;;;;5073332;28;20128;-82
2023/07/26 00:14:40;;;;;;;0.00;0.00;;;;;;;;;;5071790;28;20028;-80
2023/07/26 00:17:06;;;;;;;0.00;0.00;;;;;;;;;;5071651;28;20491;-81
2023/07/26 00:19:32;;;;;;;0.00;0.00;;;;;;;;;;5073184;28;20388;-81
2023/07/26 00:21:58;;;;;;;0.00;0.00;;;;;;;;;;5072043;28;20036;-81
2023/07/26 00:24:24;;;;;;;0.00;0.00;;;;;;;;;;5073164;28;20041;-81
2023/07/26 00:26:50;;;;;;;0.00;0.00;;;;;;;;;;5071364;28;20055;-80
2023/07/26 00:29:16;;;;;;;0.00;0.00;;;;;;;;;;5073084;28;20468;-81
2023/07/26 00:31:42;;;;;;;0.00;0.00;;;;;;;;;;5072309;28;20508;-81
2023/07/26 00:34:08;;;;;;;0.00;0.00;;;;;;;;;;5072793;28;20044;-80
2023/07/26 00:36:34;;;;;;;0.10;0.00;;;;;;;;;;5071067;28;20044;-81
2023/07/26 00:39:00;;;;;;;0.00;0.00;;;;;;;;;;5072804;28;20056;-82
2023/07/26 00:41:27;;;;;;;0.00;0.00;;;;;;;;;;5072585;28;20042;-80
2023/07/26 00:43:53;;;;;;;0.00;0.00;;;;;;;;;;5072957;28;20040;-81
2023/07/26 00:46:19;;;;;;;0.00;0.00;;;;;;;;;;5054240;28;20078;-81
2023/07/26 00:48:45;;;;;;;0.00;0.00;;;;;;;;;;5071340;28;20052;-81
2023/07/26 00:51:11;;;;;;;0.32;0.20;;;;;;;;;;5070856;28;20407;-81
2023/07/26 00:53:38;;;;;;;0.00;0.00;;;;;;;;;;5071282;28;20041;-81
2023/07/26 00:56:04;;;;;;;0.00;0.00;;;;;;;;;;5072630;28;20098;-81
2023/07/26 00:58:31;;;;;;;0.00;0.00;;;;;;;;;;5072458;28;20075;-81
2023/07/26 01:00:57;;;;;;;0.00;0.00;;;;;;;;;;5070912;28;20040;-81
2023/07/26 01:03:23;;;;;;;0.00;0.00;;;;;;;;;;5071071;28;20048;-81
2023/07/26 01:06:10;;;;;;;0.00;0.00;;;;;;;;;;5072166;28;20063;-82
2023/07/26 01:08:43;;;;;;;0.00;0.00;;;;;;;;;;5072286;28;20044;-81
2023/07/26 01:11:15;;;;;;;0.88;0.00;;;;;;;;;;5072165;28;20093;-81
2023/07/26 01:13:41;;;;;;;0.00;0.00;;;;;;;;;;5071372;28;20051;-81
2023/07/26 01:16:07;;;;;;;0.00;0.00;;;;;;;;;;5071042;28;20045;-81
2023/07/26 01:18:33;;;;;;;0.00;0.00;;;;;;;;;;5071214;28;20040;-81
2023/07/26 01:20:59;;;;;;;0.00;0.00;;;;;;;;;;5072074;28;20040;-81
2023/07/26 01:23:26;;;;;;;0.00;0.00;;;;;;;;;;5071059;28;20050;-82
2023/07/26 01:25:52;;;;;;;0.00;0.00;;;;;;;;;;5072175;28;20123;-81
2023/07/26 01:28:18;;;;;;;0.00;0.00;;;;;;;;;;5072276;28;20040;-81
2023/07/26 01:30:44;;;;;;;0.00;0.00;;;;;;;;;;5071926;28;20051;-80
2023/07/26 01:33:10;;;;;;;0.00;0.00;;;;;;;;;;5070758;28;20472;-81
2023/07/26 01:35:36;;;;;;;0.00;0.00;;;;;;;;;;5072058;28;20049;-81
2023/07/26 01:38:03;;;;;;;0.00;0.00;;;;;;;;;;5072634;28;20048;-81
2023/07/26 01:40:29;;;;;;;0.00;0.00;;;;;;;;;;5075935;28;20040;-81
2023/07/26 01:42:56;;;;;;;0.00;0.00;;;;;;;;;;5076211;28;20098;-81
2023/07/26 01:45:22;;;;;;;0.00;0.00;;;;;;;;;;5075849;28;20048;-81
2023/07/26 01:47:49;;;;;;;0.00;0.00;;;;;;;;;;5074593;28;20059;-81
2023/07/26 01:50:15;;;;;;;0.00;0.00;;;;;;;;;;5075922;28;20166;-81
2023/07/26 01:52:41;;;;;;;0.00;0.00;;;;;;;;;;5075711;28;20047;-81
2023/07/26 01:55:07;;;;;;;0.00;0.00;;;;;;;;;;5074738;28;20072;-80
2023/07/26 01:57:33;;;;;;;0.00;0.00;;;;;;;;;;5075463;28;20045;-81
2023/07/26 02:00:00;;;;;;;0.00;0.00;;;;;;;;;;5074351;28;20413;-81
2023/07/26 02:02:26;;;;;;;0.00;0.00;;;;;;;;;;5074406;28;20055;-80
2023/07/26 02:04:52;;;;;;;0.00;0.00;;;;;;;;;;5075986;28;20040;-81
2023/07/26 02:07:18;;;;;;;0.00;0.00;;;;;;;;;;5074205;28;20407;-81
2023/07/26 02:09:44;;;;;;;0.00;0.00;;;;;;;;;;5074302;28;20044;-81
2023/07/26 02:12:10;;;;;;;0.00;0.00;;;;;;;;;;5057402;28;20052;-81
2023/07/26 02:14:36;;;;;;;0.00;0.00;;;;;;;;;;5075600;28;20064;-81
2023/07/26 02:17:02;;;;;;;0.00;0.00;;;;;;;;;;5075318;28;20040;-81
2023/07/26 02:19:28;;;;;;;0.00;0.00;;;;;;;;;;5074055;28;20047;-81
2023/07/26 02:21:54;;;;;;;0.00;0.00;;;;;;;;;;5073843;28;20056;-82
2023/07/26 02:24:21;;;;;;;0.00;0.00;;;;;;;;;;5075513;28;20123;-81
2023/07/26 02:26:47;;;;;;;0.00;0.00;;;;;;;;;;5074164;28;20458;-81
2023/07/26 02:29:13;;;;;;;0.00;0.00;;;;;;;;;;5075648;28;20063;-82
2023/07/26 02:31:39;;;;;;;0.00;0.00;;;;;;;;;;5075049;28;20397;-81
2023/07/26 02:34:05;;;;;;;0.00;0.00;;;;;;;;;;5074098;28;20058;-81
2023/07/26 02:36:31;;;;;;;0.00;0.00;;;;;;;;;;5073954;28;20494;-81
2023/07/26 02:38:57;;;;;;;0.00;0.00;;;;;;;;;;5075049;28;20071;-80
2023/07/26 02:41:23;;;;;;;0.00;0.00;;;;;;;;;;5073568;28;20051;-81
2023/07/26 02:43:50;;;;;;;0.00;0.00;;;;;;;;;;5073840;28;20139;-81
2023/07/26 02:46:16;;;;;;;0.00;0.00;;;;;;;;;;5073445;28;20053;-81
2023/07/26 02:48:42;;;;;;;0.00;0.00;;;;;;;;;;5073732;28;20056;-81
2023/07/26 02:51:09;;;;;;;0.00;0.00;;;;;;;;;;5072544;28;20492;-81
2023/07/26 02:53:35;;;;;;;0.00;0.00;;;;;;;;;;5073672;28;20091;-82
2023/07/26 02:56:01;;;;;;;0.00;0.00;;;;;;;;;;5073719;28;20047;-81
2023/07/26 02:58:27;;;;;;;0.00;0.00;;;;;;;;;;5073309;28;20538;-81
2023/07/26 03:00:53;;;;;;;0.00;0.00;;;;;;;;;;5075188;28;20089;-80
2023/07/26 03:03:20;;;;;;;0.00;0.00;;;;;;;;;;5074818;28;20040;-81
2023/07/26 03:05:45;;;;;;;0.00;0.00;;;;;;;;;;5073844;28;20048;-81
2023/07/26 03:08:11;;;;;;;0.00;0.00;;;;;;;;;;5073511;28;20045;-81
2023/07/26 03:10:37;;;;;;;0.00;0.00;;;;;;;;;;5074688;28;20373;-81
2023/07/26 03:13:03;;;;;;;0.00;0.00;;;;;;;;;;5073263;28;20135;-81
2023/07/26 03:15:30;;;;;;;0.00;0.00;;;;;;;;;;5073099;28;20044;-81
2023/07/26 03:17:56;;;;;;;0.00;0.00;;;;;;;;;;5073007;28;20049;-81
2023/07/26 03:20:22;;;;;;;0.00;0.00;;;;;;;;;;5074462;28;20040;-81
2023/07/26 03:22:48;;;;;;;0.00;0.00;;;;;;;;;;5074207;28;20036;-81
2023/07/26 03:25:14;;;;;;;0.00;0.00;;;;;;;;;;5074329;28;20037;-81
2023/07/26 03:27:40;;;;;;;0.00;0.00;;;;;;;;;;5072969;28;20055;-81
2023/07/26 03:30:07;;;;;;;0.00;0.00;;;;;;;;;;5074285;28;20063;-81
2023/07/26 03:32:33;;;;;;;0.00;0.00;;;;;;;;;;5074106;28;20047;-81
2023/07/26 03:34:59;;;;;;;0.00;0.00;;;;;;;;;;5073081;28;20045;-81
2023/07/26 03:37:25;;;;;;;0.00;0.00;;;;;;;;;;5073840;28;20041;-81
2023/07/26 03:39:52;;;;;;;0.00;0.00;;;;;;;;;;5073545;28;20036;-81
2023/07/26 03:42:18;;;;;;;0.00;0.00;;;;;;;;;;5072661;28;20062;-81
2023/07/26 03:44:44;;;;;;;0.00;0.00;;;;;;;;;;5073825;28;20118;-81
2023/07/26 03:47:10;;;;;;;0.00;0.00;;;;;;;;;;5072238;28;20049;-81
2023/07/26 03:49:36;;;;;;;0.00;0.00;;;;;;;;;;5073854;28;20047;-81
2023/07/26 03:52:03;;;;;;;0.00;0.00;;;;;;;;;;5073720;28;20149;-82
2023/07/26 03:54:29;;;;;;;0.00;0.00;;;;;;;;;;5072527;28;20101;-81
2023/07/26 03:56:55;;;;;;;0.00;0.00;;;;;;;;;;5072249;28;20127;-81
2023/07/26 03:59:21;;;;;;;0.00;0.00;;;;;;;;;;5072338;28;20119;-80
2023/07/26 04:01:47;;;;;;;0.00;0.00;;;;;;;;;;5073141;28;20039;-81
2023/07/26 04:04:13;;;;;;;0.00;0.00;;;;;;;;;;5073536;28;20110;-81
2023/07/26 04:06:39;;;;;;;0.00;0.00;;;;;;;;;;5073588;28;20184;-81
2023/07/26 04:09:05;;;;;;;0.00;0.00;;;;;;;;;;5073049;28;20036;-81
2023/07/26 04:11:31;;;;;;;0.00;0.00;;;;;;;;;;5073338;28;20036;-81
2023/07/26 04:13:57;;;;;;;0.00;0.00;;;;;;;;;;5071720;28;20046;-81
2023/07/26 04:16:23;;;;;;;0.00;0.00;;;;;;;;;;5073378;28;20123;-81
2023/07/26 04:18:49;;;;;;;0.00;0.00;;;;;;;;;;5073018;28;20476;-81
2023/07/26 04:21:18;;;;;;;0.00;0.00;;;;;;;;;;5071844;28;20120;-81
2023/07/26 04:23:45;;;;;;;0.00;0.00;;;;;;;;;;5071573;28;20049;-81
2023/07/26 04:26:11;;;;;;;0.00;0.00;;;;;;;;;;5073412;28;20037;-81
2023/07/26 04:28:37;;;;;;;0.00;0.00;;;;;;;;;;5071848;28;20045;-81
2023/07/26 04:31:03;;;;;;;0.00;0.00;;;;;;;;;;5071577;28;20044;-81
2023/07/26 04:33:29;;;;;;;0.00;0.00;;;;;;;;;;5071389;28;20119;-81
2023/07/26 04:35:57;;;;;;;0.00;0.00;;;;;;;;;;5072965;28;20040;-81
2023/07/26 04:38:23;;;;;;;0.00;0.00;;;;;;;;;;5071540;28;20130;-81
2023/07/26 04:40:49;;;;;;;0.00;0.00;;;;;;;;;;5071608;28;20083;-81
2023/07/26 04:43:21;;;;;;;0.00;0.00;;;;;;;;;;5072532;28;20491;-81
2023/07/26 04:45:51;;;;;;;0.00;0.00;;;;;;;;;;5072421;28;20060;-81
2023/07/26 04:48:17;;;;;;;0.00;0.00;;;;;;;;;;5072593;28;20052;-81
2023/07/26 04:50:44;;;;;;;0.00;0.00;;;;;;;;;;5072551;28;20064;-82
2023/07/26 04:53:10;;;;;;;0.00;0.00;;;;;;;;;;5071893;28;20387;-81
2023/07/26 04:55:46;;;;;;;0.00;0.00;;;;;;;;;;5071457;28;20425;-81
2023/07/26 04:58:13;;;;;;;0.00;0.00;;;;;;;;;;5071286;28;20464;-81
2023/07/26 05:00:39;;;;;;;0.00;0.00;;;;;;;;;;5071351;28;20045;-80
2023/07/26 05:03:05;;;;;;;0.00;0.00;;;;;;;;;;5071407;28;20123;-81
2023/07/26 05:05:32;;;;;;;0.00;0.00;;;;;;;;;;5071411;28;20047;-81
2023/07/26 05:07:58;;;;;;;0.00;0.00;;;;;;;;;;5071260;28;20051;-81
2023/07/26 05:10:25;;;;;;;0.00;0.00;;;;;;;;;;5071327;28;20144;-80
2023/07/26 05:12:51;;;;;;;0.00;0.00;;;;;;;;;;5071793;28;20051;-80
2023/07/26 05:15:17;;;;;;;0.00;0.00;;;;;;;;;;5071451;28;20048;-80
2023/07/26 05:17:44;;;;;;;0.00;0.00;;;;;;;;;;5070791;28;20128;-80
2023/07/26 05:20:10;;;;;;;0.00;0.00;;;;;;;;;;5054607;28;20045;-81
2023/07/26 05:22:36;;;;;;;0.00;0.00;;;;;;;;;;5072402;28;20036;-80
2023/07/26 05:25:02;;;;;;;0.00;0.00;;;;;;;;;;5071159;28;20119;-80
2023/07/26 05:27:28;;;;;;;0.00;0.00;;;;;;;;;;5071066;28;20045;-80
2023/07/26 05:29:57;;;;;;;0.00;0.00;;;;;;;;;;5070666;28;20064;-80
2023/07/26 05:32:23;;;;;;;0.00;0.00;;;;;;;;;;5072321;28;20052;-81
2023/07/26 05:34:53;;;;;;;0.00;0.00;;;;;;;;;;5070832;28;20045;-81
2023/07/26 05:37:21;;;;;;;0.00;0.00;;;;;;;;;;5072391;28;20121;-80
2023/07/26 05:39:48;;;;;;;0.00;0.00;;;;;;;;;;5072133;28;20033;-81
2023/07/26 05:42:14;;;;;;;0.00;0.00;;;;;;;;;;5072367;28;20037;-80
2023/07/26 05:44:40;;;;;;;0.00;0.00;;;;;;;;;;5071745;28;20093;-81
2023/07/26 05:47:06;;;;;;;0.00;0.00;;;;;;;;;;5070697;28;20408;-81
2023/07/26 05:49:32;;;;;;;0.00;0.00;;;;;;;;;;5071919;28;20051;-81
2023/07/26 05:51:59;;;;;;;0.00;0.00;;;;;;;;;;5070767;28;20049;-80
2023/07/26 05:54:25;;;;;;;0.00;0.00;;;;;;;;;;5070692;28;20127;-81
2023/07/26 05:56:51;;;;;;;0.00;0.00;;;;;;;;;;5072056;28;20044;-82
2023/07/26 05:59:17;;;;;;;0.00;0.00;;;;;;;;;;5070477;28;20132;-83
2023/07/26 06:01:43;;;;;;;0.00;0.00;;;;;;;;;;5070538;28;20476;-83
2023/07/26 06:04:09;;;;;;;0.00;0.00;;;;;;;;;;5071826;28;20507;-83
2023/07/26 06:06:35;;;;;;;0.00;0.00;;;;;;;;;;5072216;28;20040;-81
2023/07/26 06:09:01;;;;;;;0.00;0.00;;;;;;;;;;5071768;28;20041;-81
2023/07/26 06:11:27;;;;;;;0.00;0.00;;;;;;;;;;5070451;28;20044;-81
2023/07/26 06:13:54;;;;;;;0.00;0.00;;;;;;;;;;5070512;28;20202;-81
2023/07/26 06:16:20;;;;;;;0.00;0.00;;;;;;;;;;5071694;28;20055;-81
2023/07/26 06:18:46;;;;;;;0.00;0.00;;;;;;;;;;5070122;28;20484;-81
2023/07/26 06:21:12;;;;;;;0.00;0.00;;;;;;;;;;5070358;28;20033;-82
2023/07/26 06:23:38;;;;;;;0.00;0.00;;;;;;;;;;5070076;28;20041;-84
2023/07/26 06:26:04;;;;;;;0.00;0.00;;;;;;;;;;5072359;28;20472;-79
2023/07/26 06:28:30;;;;;;;0.00;0.00;;;;;;;;;;5057054;28;20040;-80
2023/07/26 06:30:57;;;;;;;0.00;0.00;;;;;;;;;;5073729;28;20040;-82
2023/07/26 06:33:23;;;;;;;0.00;0.00;;;;;;;;;;5073553;28;20047;-80
2023/07/26 06:35:49;;;;;;;0.00;0.00;;;;;;;;;;5073748;28;20081;-80
2023/07/26 06:38:15;;;;;;;0.00;0.00;;;;;;;;;;5073746;28;20052;-79
2023/07/26 06:40:41;;;;;;;0.00;0.00;;;;;;;;;;5074929;28;20075;-81
2023/07/26 06:43:07;;;;;;;0.00;0.00;;;;;;;;;;5074944;28;20037;-80
2023/07/26 06:45:33;;;;;;;0.00;0.00;;;;;;;;;;5073191;28;20052;-79
2023/07/26 06:47:59;;;;;;;0.00;0.00;;;;;;;;;;5073524;28;20055;-79
2023/07/26 06:50:25;;;;;;;0.00;0.00;;;;;;;;;;5073355;28;20045;-80
2023/07/26 06:52:51;;;;;;;0.00;0.00;;;;;;;;;;5073510;28;20048;-81
2023/07/26 06:55:17;;;;;;;0.00;0.00;;;;;;;;;;5074560;28;20044;-81
2023/07/26 06:57:43;;;;;;;0.00;0.00;;;;;;;;;;5073433;28;20487;-80
2023/07/26 07:00:12;;;;;;;0.00;0.00;;;;;;;;;;5073194;28;20052;-80
2023/07/26 07:02:39;;;;;;;0.00;0.00;;;;;;;;;;5056727;28;20041;-82
2023/07/26 07:05:05;;;;;;;0.00;0.00;;;;;;;;;;5073279;28;20048;-80
2023/07/26 07:07:31;;;;;;;0.00;0.00;;;;;;;;;;5073214;28;20045;-81
2023/07/26 07:09:57;;;;;;;0.00;0.00;;;;;;;;;;5072858;28;20076;-80
2023/07/26 07:12:23;;;;;;;0.00;0.00;;;;;;;;;;5074384;28;20079;-82
2023/07/26 07:14:49;;;;;;;0.00;0.00;;;;;;;;;;5074254;28;20105;-82
2023/07/26 07:17:15;;;;;;;0.00;0.00;;;;;;;;;;5074322;28;20087;-81
2023/07/26 07:19:41;;;;;;;0.00;0.00;;;;;;;;;;5074039;28;20055;-82
2023/07/26 07:22:07;;;;;;;0.00;0.00;;;;;;;;;;5072918;28;20074;-82
2023/07/26 07:24:34;;;;;;;0.00;0.00;;;;;;;;;;5056248;28;20052;-82
2023/07/26 07:27:00;;;;;;;0.00;0.00;;;;;;;;;;5074288;28;20476;-85
2023/07/26 07:29:26;;;;;;;0.00;0.00;;;;;;;;;;5073027;28;20041;-87
2023/07/26 07:31:52;;;;;;;0.00;0.00;;;;;;;;;;5074868;28;20032;-83
2023/07/26 07:34:18;;;;;;;0.00;0.00;;;;;;;;;;5074229;28;20055;-82
2023/07/26 07:36:44;;;;;;;0.00;0.00;;;;;;;;;;5073590;28;20372;-83
2023/07/26 07:39:12;;;;;;;0.00;0.00;;;;;;;;;;5073911;28;20048;-82
2023/07/26 07:41:38;;;;;;;0.00;0.00;;;;;;;;;;5072601;28;20614;-82
2023/07/26 07:44:04;;;;;;;0.00;0.00;;;;;;;;;;5072305;28;20098;-82
2023/07/26 07:46:30;;;;;;;0.00;0.00;;;;;;;;;;5072430;28;20134;-83
2023/07/26 07:48:56;;;;;;;0.00;0.00;;;;;;;;;;5073917;28;20053;-82
2023/07/26 07:51:22;;;;;;;0.00;0.00;;;;;;;;;;5073428;28;20049;-83
2023/07/26 07:53:49;;;;;;;0.00;0.00;;;;;;;;;;5073089;28;20115;-83
2023/07/26 07:56:15;;;;;;;0.00;0.00;;;;;;;;;;5072859;28;20099;-84
2023/07/26 07:58:41;;;;;;;0.00;0.00;;;;;;;;;;5073079;28;20561;-83
2023/07/26 08:01:07;;;;;;;0.00;0.00;;;;;;;;;;5072014;28;20067;-83
2023/07/26 08:03:34;;;;;;;0.00;0.00;;;;;;;;;;5073575;28;20040;-84
2023/07/26 08:06:00;;;;;;;0.00;0.00;;;;;;;;;;5072032;28;20044;-83
2023/07/26 08:08:26;;;;;;;0.00;0.00;;;;;;;;;;5055564;28;20400;-83
2023/07/26 08:10:52;;;;;;;0.00;0.00;;;;;;;;;;5071909;28;20044;-83
2023/07/26 08:13:18;;;;;;;0.00;0.00;;;;;;;;;;5072073;28;20043;-83
2023/07/26 08:15:44;;;;;;;0.00;0.00;;;;;;;;;;5071826;28;20048;-86
2023/07/26 08:18:10;;;;;;;0.00;0.00;;;;;;;;;;5073411;28;20041;-83
2023/07/26 08:20:36;;;;;;;0.00;0.00;;;;;;;;;;5071703;28;20043;-83
2023/07/26 08:23:04;;;;;;;0.00;0.00;;;;;;;;;;5071722;28;20550;-83
2023/07/26 08:25:30;;;;;;;0.00;0.00;;;;;;;;;;5071476;28;20383;-83
2023/07/26 08:27:57;;;;;;;0.00;0.00;;;;;;;;;;5055277;28;20044;-85
2023/07/26 08:30:23;;;;;;;0.00;0.00;;;;;;;;;;5071648;28;20044;-84
2023/07/26 08:32:49;;;;;;;0.00;0.00;;;;;;;;;;5073246;28;20044;-84
2023/07/26 08:35:15;;;;;;;0.00;0.00;;;;;;;;;;5072921;28;20047;-85
2023/07/26 08:37:41;;;;;;;0.00;0.00;;;;;;;;;;5073198;28;20109;-85
2023/07/26 08:40:07;;;;;;;0.00;0.00;;;;;;;;;;5072644;28;20048;-87
2023/07/26 08:42:33;;;;;;;0.00;0.00;;;;;;;;;;5073058;28;20139;-84
2023/07/26 08:45:00;;;;;;;0.00;0.00;;;;;;;;;;5071252;28;20064;-83
2023/07/26 08:47:26;;;;;;;0.00;0.00;;;;;;;;;;5071328;28;20049;-84
2023/07/26 08:49:53;;;;;;;0.00;0.00;;;;;;;;;;5070942;28;20048;-84
2023/07/26 08:52:19;;;;;;;0.00;0.00;;;;;;;;;;5072924;28;20048;-86
2023/07/26 08:54:49;;;;;;;0.00;0.00;;;;;;;;;;5071274;28;20463;-84
2023/07/26 08:57:16;;;;;;;0.00;0.00;;;;;;;;;;5072692;28;20041;-85
2023/07/26 08:59:42;;;;;;;0.00;0.00;;;;;;;;;;5071212;28;20045;-83
2023/07/26 09:02:09;;;;;;;0.00;0.00;;;;;;;;;;5072343;28;20592;-85
2023/07/26 09:04:35;;;;;;;0.00;0.00;;;;;;;;;;5071148;28;20044;-84
2023/07/26 09:07:02;;;;;;;0.00;0.00;;;;;;;;;;5054464;28;20036;-84
2023/07/26 09:09:28;;;;;;;0.00;0.00;;;;;;;;;;5070951;28;20047;-83
2023/07/26 09:11:54;;;;;;;0.00;0.00;;;;;;;;;;5071133;28;20037;-84
2023/07/26 09:14:26;;;;;;;0.00;0.00;;;;;;;;;;5071385;28;20044;-84
2023/07/26 09:16:55;;;;;;;0.00;0.00;;;;;;;;;;5054674;28;20040;-85
2023/07/26 09:19:27;;;;;;;0.00;0.00;;;;;;;;;;5071145;28;20395;-84
2023/07/26 09:21:56;;;;;;;0.00;0.00;;;;;;;;;;5054229;28;20093;-85
2023/07/26 09:24:28;;;;;;;0.00;0.00;;;;;;;;;;5071478;28;20036;-84
2023/07/26 09:27:02;;;;;;;0.00;0.00;;;;;;;;;;5071221;28;20052;-85
2023/07/26 09:29:28;;;;;;;0.00;0.00;;;;;;;;;;5071174;28;20037;-85
2023/07/26 09:31:54;;;;;;;0.00;0.00;;;;;;;;;;5071099;28;20124;-85
2023/07/26 09:34:21;;;;;;;0.00;0.00;;;;;;;;;;5071172;28;20090;-85
2023/07/26 09:36:48;;;;;;;0.00;0.00;;;;;;;;;;5070773;28;20121;-85
2023/07/26 09:39:16;;;;;;;0.00;0.00;;;;;;;;;;5070894;28;20079;-84
2023/07/26 09:41:45;;;;;;;0.00;0.00;;;;;;;;;;5070570;28;20059;-84
2023/07/26 09:44:15;;;;;;;0.00;0.00;;;;;;;;;;5071193;28;20112;-84
2023/07/26 09:46:48;;;;;;;0.00;0.00;;;;;;;;;;5053626;28;20055;-85
2023/07/26 09:49:15;;;;;;;0.00;0.00;;;;;;;;;;5070796;28;20055;-85
2023/07/26 09:51:41;;;;;;;0.00;0.00;;;;;;;;;;5070845;28;20456;-85
2023/07/26 09:54:08;;;;;;;0.00;0.00;;;;;;;;;;5054174;28;20071;-85
2023/07/26 09:56:35;;;;;;;0.00;0.00;;;;;;;;;;5070543;28;20040;-85
2023/07/26 09:59:01;;;;;;;0.00;0.00;;;;;;;;;;5054286;28;20045;-84
2023/07/26 10:01:29;;;;;;;0.00;0.00;;;;;;;;;;5074499;28;20041;-83
2023/07/26 10:03:56;;;;;;;0.00;0.00;;;;;;;;;;5075861;28;20059;-84
2023/07/26 10:06:23;;;;;;;0.00;0.00;;;;;;;;;;5074829;28;20071;-84
2023/07/26 10:08:49;;;;;;;0.00;0.00;;;;;;;;;;5074476;28;20491;-85
2023/07/26 10:11:15;;;;;;;0.00;0.00;;;;;;;;;;5073975;28;20044;-84
2023/07/26 10:13:45;;;;;;;0.00;0.00;;;;;;;;;;5074405;28;20036;-85
2023/07/26 10:16:11;;;;;;;0.00;0.00;;;;;;;;;;5074060;28;20041;-84
2023/07/26 10:18:37;;;;;;;0.00;0.00;;;;;;;;;;5075451;28;20124;-83
2023/07/26 10:21:05;;;;;;;0.00;0.00;;;;;;;;;;5074126;28;20411;-83
2023/07/26 10:23:31;;;;;;;0.00;0.00;;;;;;;;;;5074206;28;20040;-83
2023/07/26 10:25:58;;;;;;;0.00;0.00;;;;;;;;;;5073855;28;20033;-83
2023/07/26 10:28:24;;;;;;;0.00;0.00;;;;;;;;;;5075153;28;20041;-83
2023/07/26 10:30:51;;;;;;;0.00;0.00;;;;;;;;;;5073551;28;20036;-82
2023/07/26 10:33:18;;;;;;;0.00;0.00;;;;;;;;;;5075485;28;20392;-83
2023/07/26 10:35:44;;;;;;;0.00;0.00;;;;;;;;;;5073775;28;20052;-83
2023/07/26 10:38:13;;;;;;;0.00;0.00;;;;;;;;;;5074077;28;20128;-83
2023/07/26 10:40:39;;;;;;;0.00;0.00;;;;;;;;;;5073868;28;20044;-83
2023/07/26 10:43:20;;;;;;;0.00;0.00;;;;;;;;;;5073832;28;20064;-84
2023/07/26 10:45:47;;;;;;;0.00;0.00;;;;;;;;;;5074779;28;20465;-83
2023/07/26 10:48:15;;;;;;;0.00;0.00;;;;;;;;;;5073790;28;20049;-83
2023/07/26 10:50:41;;;;;;;0.00;0.00;;;;;;;;;;5073622;28;20044;-83
2023/07/26 10:53:25;;;;;;;0.00;0.00;;;;;;;;;;5074759;28;20145;-84
2023/07/26 10:55:51;;;;;;;0.00;0.00;;;;;;;;;;5073397;28;20448;-83
2023/07/26 10:58:17;;;;;;;0.00;0.00;;;;;;;;;;5073208;28;20036;-84
2023/07/26 11:00:45;;;;;;;0.00;0.00;;;;;;;;;;5074710;28;20067;-84
2023/07/26 11:03:12;;;;;;;0.00;0.00;;;;;;;;;;5073174;28;20041;-84
2023/07/26 11:05:55;;;;;;;0.00;0.00;;;;;;;;;;5073162;28;20400;-84
2023/07/26 11:08:21;;;;;;;0.00;0.00;;;;;;;;;;5056349;28;20400;-84
2023/07/26 11:10:51;;;;;;;0.00;0.00;;;;;;;;;;5072403;28;20048;-85
2023/07/26 11:13:19;;;;;;;0.00;0.00;;;;;;;;;;5074454;28;20051;-84
2023/07/26 11:15:46;;;;;;;0.00;0.00;;;;;;;;;;5073361;28;20044;-84
2023/07/26 11:18:12;;;;;;;0.00;0.00;;;;;;;;;;5072682;28;20044;-84
2023/07/26 11:20:46;;;;;;;0.00;0.00;;;;;;;;;;5073093;28;20047;-84
2023/07/26 11:23:18;;;;;;;0.00;0.00;;;;;;;;;;5072930;28;20045;-84
2023/07/26 11:25:48;;;;;;;0.00;0.00;;;;;;;;;;5056634;28;20044;-84
2023/07/26 11:28:14;;;;;;;0.00;0.00;;;;;;;;;;5072790;28;20450;-85
2023/07/26 11:30:42;;;;;;;0.00;0.00;;;;;;;;;;5073110;28;20076;-84
2023/07/26 11:33:09;;;;;;;0.00;0.00;;;;;;;;;;5074196;28;20074;-87
2023/07/26 11:35:42;;;;;;;0.00;0.00;;;;;;;;;;5073025;28;20048;-84
2023/07/26 11:38:14;;;;;;;0.00;0.00;;;;;;;;;;5073799;28;20051;-84
2023/07/26 11:40:41;;;;;;;0.00;0.00;;;;;;;;;;5072688;28;20036;-84
2023/07/26 11:43:07;;;;;;;0.00;0.00;;;;;;;;;;5073547;28;20036;-85
2023/07/26 11:45:40;;;;;;;0.00;0.00;;;;;;;;;;5072391;28;20141;-83
2023/07/26 11:48:09;;;;;;;0.00;0.00;;;;;;;;;;5072354;28;20128;-84
2023/07/26 11:50:36;;;;;;;0.00;0.00;;;;;;;;;;5055648;28;20040;-85
2023/07/26 11:53:09;;;;;;;0.00;0.00;;;;;;;;;;5073506;28;20043;-86
2023/07/26 11:55:36;;;;;;;0.00;0.00;;;;;;;;;;5073638;28;20468;-84
2023/07/26 11:58:06;;;;;;;0.00;0.00;;;;;;;;;;5071818;28;20064;-84
2023/07/26 12:00:33;;;;;;;0.00;0.00;;;;;;;;;;5072247;28;20040;-83
2023/07/26 12:03:01;;;;;;;0.00;0.00;;;;;;;;;;5073324;28;20036;-83
2023/07/26 12:05:28;;;;;;;0.00;0.00;;;;;;;;;;5072366;28;20036;-84
2023/07/26 12:07:55;;;;;;;0.00;0.00;;;;;;;;;;5071792;28;20112;-83
2023/07/26 12:10:27;;;;;;;0.00;0.00;;;;;;;;;;5071976;28;20579;-83
2023/07/26 12:12:53;;;;;;;0.00;0.00;;;;;;;;;;5073213;28;20491;-82
2023/07/26 12:15:19;;;;;;;0.00;0.00;;;;;;;;;;5072119;28;20045;-82
2023/07/26 12:18:02;;;;;;;0.00;0.00;;;;;;;;;;5073023;28;20105;-82
2023/07/26 12:20:30;;;;;;;0.00;0.00;;;;;;;;;;5073020;28;20113;-83
2023/07/26 12:22:58;;;;;;;0.00;0.00;;;;;;;;;;5054944;28;20037;-83
2023/07/26 12:25:34;;;;;;;0.00;0.00;;;;;;;;;;5071894;28;20055;-83
2023/07/26 12:28:00;;;;;;;0.00;0.00;;;;;;;;;;5071786;28;20051;-84
2023/07/26 12:30:27;;;;;;;0.00;0.00;;;;;;;;;;5072084;28;20386;-83
2023/07/26 12:33:09;;;;;;;0.00;0.00;;;;;;;;;;5071505;28;20558;-83
2023/07/26 12:35:36;;;;;;;0.00;0.00;;;;;;;;;;5071869;28;20040;-83
2023/07/26 12:38:12;;;;;;;0.00;0.00;;;;;;;;;;5071649;28;20075;-82
2023/07/26 12:40:38;;;;;;;0.00;0.00;;;;;;;;;;5072904;28;20039;-82
2023/07/26 12:43:24;;;;;;;0.00;0.00;;;;;;;;;;5071502;28;20033;-82
2023/07/26 12:45:51;;;;;;;0.00;0.00;;;;;;;;;;5071389;28;20127;-84
2023/07/26 12:48:17;;;;;;;0.00;0.00;;;;;;;;;;5072718;28;20048;-84
2023/07/26 12:50:43;;;;;;;0.00;0.00;;;;;;;;;;5075089;28;20499;-83
2023/07/26 12:53:13;;;;;;;0.00;0.00;;;;;;;;;;5071469;28;20086;-84
2023/07/26 12:55:39;;;;;;;0.00;0.00;;;;;;;;;;5071860;28;20044;-83
2023/07/26 12:58:06;;;;;;;0.00;0.00;;;;;;;;;;5071525;28;20045;-84
2023/07/26 13:00:32;;;;;;;0.00;0.00;;;;;;;;;;5055110;28;20047;-83
2023/07/26 13:02:58;;;;;;;0.00;0.00;;;;;;;;;;5072576;28;20403;-83
2023/07/26 13:05:24;;;;;;;0.00;0.00;;;;;;;;;;5073047;28;20044;-82
2023/07/26 13:07:51;;;;;;;0.00;0.00;;;;;;;;;;5071092;28;20048;-83
2023/07/26 13:10:17;;;;;;;0.00;0.00;;;;;;;;;;5071266;28;20123;-81
2023/07/26 13:12:43;;;;;;;0.00;0.00;;;;;;;;;;5071030;28;20040;-82
2023/07/26 13:15:09;;;;;;;0.00;0.00;;;;;;;;;;5072735;28;20089;-84
2023/07/26 13:17:35;;;;;;;0.00;0.00;;;;;;;;;;5071084;28;20514;-82
2023/07/26 13:20:02;;;;;;;0.00;0.00;;;;;;;;;;5071112;28;20040;-82
2023/07/26 13:22:29;;;;;;;0.00;0.00;;;;;;;;;;5072292;28;20044;-82
2023/07/26 13:24:55;;;;;;;0.00;0.00;;;;;;;;;;5072609;28;20033;-82
2023/07/26 13:27:22;;;;;;;0.00;0.00;;;;;;;;;;5071237;28;20124;-82
2023/07/26 13:29:48;;;;;;;0.00;0.00;;;;;;;;;;5070780;28;20040;-82
2023/07/26 13:32:15;;;;;;;0.00;0.00;;;;;;;;;;5055150;28;20137;-82
2023/07/26 13:34:41;;;;;;;0.00;0.00;;;;;;;;;;5055814;28;20043;-82
2023/07/26 13:37:07;;;;;;;0.00;0.00;;;;;;;;;;5075638;28;20048;-82
2023/07/26 13:39:33;;;;;;;0.00;0.00;;;;;;;;;;5076593;28;20040;-82
2023/07/26 13:41:59;;;;;;;0.00;0.00;;;;;;;;;;5075546;28;20033;-82
2023/07/26 13:44:26;;;;;;;0.00;0.00;;;;;;;;;;5075053;28;20033;-82
2023/07/26 13:46:52;;;;;;;0.00;0.00;;;;;;;;;;5075280;28;20052;-82
2023/07/26 13:49:19;;;;;;;0.20;0.00;;;;;;;;;;5075195;28;20044;-82
2023/07/26 13:51:45;;;;;;;0.00;0.00;;;;;;;;;;5058798;28;20132;-82
2023/07/26 13:54:11;;;;;;;0.00;0.00;;;;;;;;;;5076221;28;20040;-82
2023/07/26 13:56:37;;;;;;;0.00;0.00;;;;;;;;;;5076384;28;20048;-82
2023/07/26 13:59:03;;;;;;;0.00;0.00;;;;;;;;;;5075932;28;20037;-82
2023/07/26 14:01:31;;;;;;;0.00;0.00;;;;;;;;;;5058366;28;20036;-82
2023/07/26 14:03:57;;;;;;;0.00;0.00;;;;;;;;;;5058040;28;20051;-83
2023/07/26 14:06:25;;;;;;;0.00;0.00;;;;;;;;;;5074878;28;20048;-83
2023/07/26 14:08:51;;;;;;;0.00;0.00;;;;;;;;;;5074611;28;20357;-83
2023/07/26 14:11:17;;;;;;;0.00;0.00;;;;;;;;;;5057919;28;20087;-83
2023/07/26 14:13:43;;;;;;;0.00;0.00;;;;;;;;;;5075922;28;20051;-84
2023/07/26 14:16:09;;;;;;;0.00;0.00;;;;;;;;;;5074688;28;20123;-83
2023/07/26 14:18:35;;;;;;;0.00;0.00;;;;;;;;;;5057428;28;20072;-82
2023/07/26 14:21:01;;;;;;;0.00;0.00;;;;;;;;;;5075608;28;20033;-83
2023/07/26 14:23:33;;;;;;;0.00;0.00;;;;;;;;;;5075322;28;20124;-82
2023/07/26 14:25:59;;;;;;;0.00;0.00;;;;;;;;;;5074407;28;20090;-83
2023/07/26 14:28:25;;;;;;;0.00;0.00;;;;;;;;;;5074308;28;20047;-83
2023/07/26 14:30:52;;;;;;;0.00;0.00;;;;;;;;;;5075656;28;20079;-83
2023/07/26 14:33:18;;;;;;;0.00;0.00;;;;;;;;;;5075206;28;20044;-83
2023/07/26 14:35:44;;;;;;;0.22;0.10;;;;;;;;;;5075650;28;20036;-83
2023/07/26 14:38:10;;;;;;;0.00;0.00;;;;;;;;;;5075102;28;20040;-84
2023/07/26 14:40:36;;;;;;;0.00;0.00;;;;;;;;;;5074001;28;20518;-84